sensor_id;sensor_type;location;lat;lon;timestamp;P1;durP1;ratioP1;P2;durP2;ratioP2
55007;SDS011;40902;45.116;21.296;2023-08-31T00:00:11;4.88;;;2.70;;
55007;SDS011;40902;45.116;21.296;2023-08-31T00:02:40;3.63;;;2.60;;
55007;SDS011;40902;45.116;21.296;2023-08-31T00:05:06;2.97;;;2.30;;
55007;SDS011;40902;45.116;21.296;2023-08-31T00:07:32;4.75;;;2.70;;
55007;SDS011;40902;45.116;21.296;2023-08-31T00:09:57;5.20;;;2.60;;
55007;SDS011;40902;45.116;21.296;2023-08-31T00:12:23;3.83;;;2.70;;
55007;SDS011;40902;45.116;21.296;2023-08-31T00:14:50;4.28;;;2.60;;
55007;SDS011;40902;45.116;21.296;2023-08-31T00:17:15;3.65;;;2.42;;
55007;SDS011;40902;45.116;21.296;2023-08-31T00:19:42;4.50;;;2.38;;
55007;SDS011;40902;45.116;21.296;2023-08-31T00:22:08;3.20;;;2.28;;
55007;SDS011;40902;45.116;21.296;2023-08-31T00:24:34;3.15;;;2.10;;
55007;SDS011;40902;45.116;21.296;2023-08-31T00:27:02;3.25;;;2.13;;
55007;SDS011;40902;45.116;21.296;2023-08-31T00:29:28;3.80;;;2.60;;
55007;SDS011;40902;45.116;21.296;2023-08-31T00:31:55;3.55;;;2.53;;
55007;SDS011;40902;45.116;21.296;2023-08-31T00:34:21;3.53;;;2.45;;
55007;SDS011;40902;45.116;21.296;2023-08-31T00:36:47;2.90;;;2.30;;
55007;SDS011;40902;45.116;21.296;2023-08-31T00:39:13;2.97;;;2.20;;
55007;SDS011;40902;45.116;21.296;2023-08-31T00:41:39;4.60;;;2.45;;
55007;SDS011;40902;45.116;21.296;2023-08-31T00:44:05;3.05;;;2.30;;
55007;SDS011;40902;45.116;21.296;2023-08-31T00:46:34;2.63;;;2.08;;
55007;SDS011;40902;45.116;21.296;2023-08-31T00:49:01;4.25;;;2.20;;
55007;SDS011;40902;45.116;21.296;2023-08-31T00:51:29;3.40;;;2.42;;
55007;SDS011;40902;45.116;21.296;2023-08-31T00:53:55;3.65;;;2.40;;
55007;SDS011;40902;45.116;21.296;2023-08-31T00:56:24;3.78;;;2.40;;
55007;SDS011;40902;45.116;21.296;2023-08-31T00:58:49;3.55;;;2.45;;
55007;SDS011;40902;45.116;21.296;2023-08-31T01:03:53;3.60;;;2.15;;
55007;SDS011;40902;45.116;21.296;2023-08-31T01:14:48;4.80;;;2.50;;
55007;SDS011;40902;45.116;21.296;2023-08-31T01:17:20;3.42;;;2.30;;
55007;SDS011;40902;45.116;21.296;2023-08-31T01:19:53;3.35;;;2.38;;
55007;SDS011;40902;45.116;21.296;2023-08-31T01:25:01;3.90;;;2.58;;
55007;SDS011;40902;45.116;21.296;2023-08-31T01:27:30;3.72;;;2.42;;
55007;SDS011;40902;45.116;21.296;2023-08-31T01:29:57;3.97;;;2.70;;
55007;SDS011;40902;45.116;21.296;2023-08-31T01:32:23;3.00;;;2.40;;
55007;SDS011;40902;45.116;21.296;2023-08-31T01:34:49;3.78;;;2.50;;
55007;SDS011;40902;45.116;21.296;2023-08-31T01:37:39;3.38;;;2.13;;
55007;SDS011;40902;45.116;21.296;2023-08-31T01:40:14;3.65;;;2.60;;
55007;SDS011;40902;45.116;21.296;2023-08-31T01:42:48;3.58;;;2.33;;
55007;SDS011;40902;45.116;21.296;2023-08-31T01:45:18;3.28;;;2.28;;
55007;SDS011;40902;45.116;21.296;2023-08-31T01:47:45;4.07;;;2.58;;
55007;SDS011;40902;45.116;21.296;2023-08-31T01:50:11;3.75;;;2.65;;
55007;SDS011;40902;45.116;21.296;2023-08-31T01:52:37;4.50;;;2.70;;
55007;SDS011;40902;45.116;21.296;2023-08-31T01:55:03;4.57;;;2.67;;
55007;SDS011;40902;45.116;21.296;2023-08-31T01:57:30;3.67;;;2.58;;
55007;SDS011;40902;45.116;21.296;2023-08-31T01:59:57;4.38;;;2.65;;
55007;SDS011;40902;45.116;21.296;2023-08-31T02:02:23;3.55;;;2.47;;
55007;SDS011;40902;45.116;21.296;2023-08-31T02:04:48;4.82;;;2.65;;
55007;SDS011;40902;45.116;21.296;2023-08-31T02:07:16;4.25;;;2.70;;
55007;SDS011;40902;45.116;21.296;2023-08-31T02:09:42;4.90;;;2.70;;
55007;SDS011;40902;45.116;21.296;2023-08-31T02:12:07;5.60;;;3.03;;
55007;SDS011;40902;45.116;21.296;2023-08-31T02:14:34;3.60;;;2.50;;
55007;SDS011;40902;45.116;21.296;2023-08-31T02:17:01;4.18;;;2.80;;
55007;SDS011;40902;45.116;21.296;2023-08-31T02:19:27;3.22;;;2.45;;
55007;SDS011;40902;45.116;21.296;2023-08-31T02:21:52;3.38;;;2.30;;
55007;SDS011;40902;45.116;21.296;2023-08-31T02:24:18;4.90;;;2.60;;
55007;SDS011;40902;45.116;21.296;2023-08-31T02:26:44;3.33;;;2.50;;
55007;SDS011;40902;45.116;21.296;2023-08-31T02:29:10;3.70;;;2.78;;
55007;SDS011;40902;45.116;21.296;2023-08-31T02:31:36;3.13;;;2.50;;
55007;SDS011;40902;45.116;21.296;2023-08-31T02:34:03;4.68;;;3.03;;
55007;SDS011;40902;45.116;21.296;2023-08-31T02:36:29;5.82;;;2.72;;
55007;SDS011;40902;45.116;21.296;2023-08-31T02:38:55;3.75;;;2.50;;
55007;SDS011;40902;45.116;21.296;2023-08-31T02:41:21;3.67;;;2.60;;
55007;SDS011;40902;45.116;21.296;2023-08-31T02:43:49;4.55;;;2.80;;
55007;SDS011;40902;45.116;21.296;2023-08-31T02:46:16;3.38;;;2.53;;
55007;SDS011;40902;45.116;21.296;2023-08-31T02:48:43;3.58;;;2.55;;
55007;SDS011;40902;45.116;21.296;2023-08-31T02:51:09;3.40;;;2.53;;
55007;SDS011;40902;45.116;21.296;2023-08-31T02:53:35;3.70;;;2.50;;
55007;SDS011;40902;45.116;21.296;2023-08-31T02:56:00;3.97;;;2.85;;
55007;SDS011;40902;45.116;21.296;2023-08-31T02:58:27;4.68;;;2.70;;
55007;SDS011;40902;45.116;21.296;2023-08-31T03:00:52;3.50;;;2.65;;
55007;SDS011;40902;45.116;21.296;2023-08-31T03:03:19;4.82;;;2.60;;
55007;SDS011;40902;45.116;21.296;2023-08-31T03:05:44;3.30;;;2.45;;
55007;SDS011;40902;45.116;21.296;2023-08-31T03:08:10;4.18;;;2.80;;
55007;SDS011;40902;45.116;21.296;2023-08-31T03:10:36;4.85;;;2.70;;
55007;SDS011;40902;45.116;21.296;2023-08-31T03:13:03;3.65;;;2.65;;
55007;SDS011;40902;45.116;21.296;2023-08-31T03:15:31;3.63;;;2.65;;
55007;SDS011;40902;45.116;21.296;2023-08-31T03:17:59;4.63;;;3.20;;
55007;SDS011;40902;45.116;21.296;2023-08-31T03:20:25;4.60;;;2.90;;
55007;SDS011;40902;45.116;21.296;2023-08-31T03:22:51;3.67;;;2.80;;
55007;SDS011;40902;45.116;21.296;2023-08-31T03:25:16;3.97;;;2.50;;
55007;SDS011;40902;45.116;21.296;2023-08-31T03:27:42;3.88;;;2.95;;
55007;SDS011;40902;45.116;21.296;2023-08-31T03:30:08;4.00;;;2.63;;
55007;SDS011;40902;45.116;21.296;2023-08-31T03:32:34;4.10;;;2.80;;
55007;SDS011;40902;45.116;21.296;2023-08-31T03:35:01;3.50;;;2.80;;
55007;SDS011;40902;45.116;21.296;2023-08-31T03:37:28;3.88;;;3.05;;
55007;SDS011;40902;45.116;21.296;2023-08-31T03:39:54;5.22;;;3.00;;
55007;SDS011;40902;45.116;21.296;2023-08-31T03:42:20;4.75;;;3.13;;
55007;SDS011;40902;45.116;21.296;2023-08-31T03:44:46;5.20;;;2.80;;
55007;SDS011;40902;45.116;21.296;2023-08-31T03:47:12;4.57;;;2.90;;
55007;SDS011;40902;45.116;21.296;2023-08-31T03:49:37;5.82;;;2.92;;
55007;SDS011;40902;45.116;21.296;2023-08-31T03:52:03;5.15;;;3.10;;
55007;SDS011;40902;45.116;21.296;2023-08-31T03:54:29;5.55;;;3.10;;
55007;SDS011;40902;45.116;21.296;2023-08-31T03:56:55;3.40;;;2.80;;
55007;SDS011;40902;45.116;21.296;2023-08-31T03:59:20;5.07;;;3.15;;
55007;SDS011;40902;45.116;21.296;2023-08-31T04:01:46;4.20;;;3.10;;
55007;SDS011;40902;45.116;21.296;2023-08-31T04:04:12;4.32;;;3.05;;
55007;SDS011;40902;45.116;21.296;2023-08-31T04:06:37;4.63;;;2.75;;
55007;SDS011;40902;45.116;21.296;2023-08-31T04:09:03;4.85;;;3.10;;
55007;SDS011;40902;45.116;21.296;2023-08-31T04:11:29;5.28;;;2.88;;
55007;SDS011;40902;45.116;21.296;2023-08-31T04:13:55;3.80;;;3.03;;
55007;SDS011;40902;45.116;21.296;2023-08-31T04:16:20;4.53;;;3.17;;
55007;SDS011;40902;45.116;21.296;2023-08-31T04:18:46;3.30;;;2.80;;
55007;SDS011;40902;45.116;21.296;2023-08-31T04:21:17;4.63;;;3.00;;
55007;SDS011;40902;45.116;21.296;2023-08-31T04:23:43;4.57;;;3.05;;
55007;SDS011;40902;45.116;21.296;2023-08-31T04:26:13;5.35;;;3.40;;
55007;SDS011;40902;45.116;21.296;2023-08-31T04:28:39;4.88;;;3.00;;
55007;SDS011;40902;45.116;21.296;2023-08-31T04:31:08;4.45;;;3.17;;
55007;SDS011;40902;45.116;21.296;2023-08-31T04:33:34;3.95;;;3.30;;
55007;SDS011;40902;45.116;21.296;2023-08-31T04:36:00;4.35;;;3.08;;
55007;SDS011;40902;45.116;21.296;2023-08-31T04:38:26;5.70;;;3.22;;
55007;SDS011;40902;45.116;21.296;2023-08-31T04:40:53;4.28;;;3.13;;
55007;SDS011;40902;45.116;21.296;2023-08-31T04:43:19;3.97;;;3.15;;
55007;SDS011;40902;45.116;21.296;2023-08-31T04:45:45;4.53;;;3.22;;
55007;SDS011;40902;45.116;21.296;2023-08-31T04:48:11;3.70;;;2.85;;
55007;SDS011;40902;45.116;21.296;2023-08-31T04:50:39;3.08;;;2.70;;
55007;SDS011;40902;45.116;21.296;2023-08-31T04:53:05;4.30;;;3.35;;
55007;SDS011;40902;45.116;21.296;2023-08-31T04:55:31;5.93;;;3.30;;
55007;SDS011;40902;45.116;21.296;2023-08-31T04:57:57;4.30;;;2.83;;
55007;SDS011;40902;45.116;21.296;2023-08-31T05:00:23;3.80;;;3.30;;
55007;SDS011;40902;45.116;21.296;2023-08-31T05:02:49;3.53;;;2.90;;
55007;SDS011;40902;45.116;21.296;2023-08-31T05:05:16;4.03;;;3.22;;
55007;SDS011;40902;45.116;21.296;2023-08-31T05:07:43;5.03;;;3.22;;
55007;SDS011;40902;45.116;21.296;2023-08-31T05:10:10;4.68;;;3.25;;
55007;SDS011;40902;45.116;21.296;2023-08-31T05:12:36;4.25;;;3.13;;
55007;SDS011;40902;45.116;21.296;2023-08-31T05:15:03;4.97;;;2.90;;
55007;SDS011;40902;45.116;21.296;2023-08-31T05:17:29;3.90;;;3.00;;
55007;SDS011;40902;45.116;21.296;2023-08-31T05:19:56;6.55;;;3.15;;
55007;SDS011;40902;45.116;21.296;2023-08-31T05:22:22;3.63;;;3.13;;
55007;SDS011;40902;45.116;21.296;2023-08-31T05:24:48;5.75;;;3.42;;
55007;SDS011;40902;45.116;21.296;2023-08-31T05:27:14;5.47;;;3.17;;
55007;SDS011;40902;45.116;21.296;2023-08-31T05:29:40;4.57;;;3.42;;
55007;SDS011;40902;45.116;21.296;2023-08-31T05:32:06;5.03;;;3.42;;
55007;SDS011;40902;45.116;21.296;2023-08-31T05:34:32;4.60;;;3.28;;
55007;SDS011;40902;45.116;21.296;2023-08-31T05:37:02;4.10;;;3.17;;
55007;SDS011;40902;45.116;21.296;2023-08-31T05:39:30;4.07;;;2.95;;
55007;SDS011;40902;45.116;21.296;2023-08-31T05:41:58;4.65;;;3.17;;
55007;SDS011;40902;45.116;21.296;2023-08-31T05:44:27;4.13;;;3.25;;
55007;SDS011;40902;45.116;21.296;2023-08-31T05:46:53;6.07;;;3.00;;
55007;SDS011;40902;45.116;21.296;2023-08-31T05:49:21;4.75;;;3.72;;
55007;SDS011;40902;45.116;21.296;2023-08-31T05:51:47;3.47;;;3.00;;
55007;SDS011;40902;45.116;21.296;2023-08-31T05:54:13;5.88;;;3.15;;
55007;SDS011;40902;45.116;21.296;2023-08-31T05:56:39;6.32;;;3.30;;
55007;SDS011;40902;45.116;21.296;2023-08-31T05:59:06;3.83;;;3.03;;
55007;SDS011;40902;45.116;21.296;2023-08-31T06:01:32;6.13;;;3.75;;
55007;SDS011;40902;45.116;21.296;2023-08-31T06:03:58;3.65;;;3.15;;
55007;SDS011;40902;45.116;21.296;2023-08-31T06:06:25;5.70;;;3.42;;
55007;SDS011;40902;45.116;21.296;2023-08-31T06:08:53;4.57;;;3.42;;
55007;SDS011;40902;45.116;21.296;2023-08-31T06:11:19;5.55;;;3.40;;
55007;SDS011;40902;45.116;21.296;2023-08-31T06:13:46;5.55;;;3.60;;
55007;SDS011;40902;45.116;21.296;2023-08-31T06:16:12;4.47;;;3.45;;
55007;SDS011;40902;45.116;21.296;2023-08-31T06:18:39;4.50;;;3.30;;
55007;SDS011;40902;45.116;21.296;2023-08-31T06:21:05;5.65;;;3.67;;
55007;SDS011;40902;45.116;21.296;2023-08-31T06:23:31;3.50;;;3.10;;
55007;SDS011;40902;45.116;21.296;2023-08-31T06:25:57;3.95;;;3.20;;
55007;SDS011;40902;45.116;21.296;2023-08-31T06:28:23;4.97;;;3.80;;
55007;SDS011;40902;45.116;21.296;2023-08-31T06:30:50;4.35;;;3.67;;
55007;SDS011;40902;45.116;21.296;2023-08-31T06:33:16;3.58;;;3.13;;
55007;SDS011;40902;45.116;21.296;2023-08-31T06:35:45;4.57;;;3.60;;
55007;SDS011;40902;45.116;21.296;2023-08-31T06:38:16;6.60;;;3.50;;
55007;SDS011;40902;45.116;21.296;2023-08-31T06:40:47;4.53;;;3.42;;
55007;SDS011;40902;45.116;21.296;2023-08-31T06:43:13;4.22;;;3.40;;
55007;SDS011;40902;45.116;21.296;2023-08-31T06:45:39;4.65;;;3.70;;
55007;SDS011;40902;45.116;21.296;2023-08-31T06:48:05;4.55;;;3.53;;
55007;SDS011;40902;45.116;21.296;2023-08-31T06:50:36;6.90;;;3.90;;
55007;SDS011;40902;45.116;21.296;2023-08-31T06:53:02;4.50;;;3.50;;
55007;SDS011;40902;45.116;21.296;2023-08-31T06:55:28;5.45;;;3.92;;
55007;SDS011;40902;45.116;21.296;2023-08-31T06:57:54;6.80;;;3.88;;
55007;SDS011;40902;45.116;21.296;2023-08-31T07:00:20;5.43;;;4.05;;
55007;SDS011;40902;45.116;21.296;2023-08-31T07:02:47;6.97;;;4.05;;
55007;SDS011;40902;45.116;21.296;2023-08-31T07:05:16;6.53;;;4.00;;
55007;SDS011;40902;45.116;21.296;2023-08-31T07:07:50;4.93;;;4.25;;
55007;SDS011;40902;45.116;21.296;2023-08-31T07:10:16;6.32;;;4.05;;
55007;SDS011;40902;45.116;21.296;2023-08-31T07:12:45;6.22;;;3.50;;
55007;SDS011;40902;45.116;21.296;2023-08-31T07:15:11;5.38;;;3.63;;
55007;SDS011;40902;45.116;21.296;2023-08-31T07:17:37;4.55;;;3.85;;
55007;SDS011;40902;45.116;21.296;2023-08-31T07:20:06;5.28;;;3.78;;
55007;SDS011;40902;45.116;21.296;2023-08-31T07:22:33;5.95;;;3.75;;
55007;SDS011;40902;45.116;21.296;2023-08-31T07:25:00;4.75;;;3.88;;
55007;SDS011;40902;45.116;21.296;2023-08-31T07:27:26;5.32;;;4.35;;
55007;SDS011;40902;45.116;21.296;2023-08-31T07:29:54;6.88;;;4.43;;
55007;SDS011;40902;45.116;21.296;2023-08-31T07:32:20;6.18;;;4.35;;
55007;SDS011;40902;45.116;21.296;2023-08-31T07:34:48;8.15;;;4.57;;
55007;SDS011;40902;45.116;21.296;2023-08-31T07:37:15;6.72;;;5.00;;
55007;SDS011;40902;45.116;21.296;2023-08-31T07:39:41;6.45;;;4.60;;
55007;SDS011;40902;45.116;21.296;2023-08-31T07:42:07;6.90;;;5.28;;
55007;SDS011;40902;45.116;21.296;2023-08-31T07:44:33;6.82;;;5.57;;
55007;SDS011;40902;45.116;21.296;2023-08-31T07:46:59;6.13;;;5.50;;
55007;SDS011;40902;45.116;21.296;2023-08-31T07:49:25;6.13;;;5.30;;
55007;SDS011;40902;45.116;21.296;2023-08-31T07:51:51;6.97;;;5.43;;
55007;SDS011;40902;45.116;21.296;2023-08-31T07:54:20;6.03;;;5.20;;
55007;SDS011;40902;45.116;21.296;2023-08-31T07:56:47;5.53;;;4.97;;
55007;SDS011;40902;45.116;21.296;2023-08-31T07:59:16;5.97;;;5.30;;
55007;SDS011;40902;45.116;21.296;2023-08-31T08:01:42;7.80;;;5.88;;
55007;SDS011;40902;45.116;21.296;2023-08-31T08:04:08;6.43;;;5.70;;
55007;SDS011;40902;45.116;21.296;2023-08-31T08:06:35;6.30;;;5.45;;
55007;SDS011;40902;45.116;21.296;2023-08-31T08:09:01;6.20;;;5.40;;
55007;SDS011;40902;45.116;21.296;2023-08-31T08:11:29;8.02;;;5.82;;
55007;SDS011;40902;45.116;21.296;2023-08-31T08:13:56;7.05;;;5.85;;
55007;SDS011;40902;45.116;21.296;2023-08-31T08:16:22;10.50;;;6.10;;
55007;SDS011;40902;45.116;21.296;2023-08-31T08:18:48;8.68;;;7.30;;
55007;SDS011;40902;45.116;21.296;2023-08-31T08:21:14;10.38;;;9.25;;
55007;SDS011;40902;45.116;21.296;2023-08-31T08:23:40;6.18;;;5.57;;
55007;SDS011;40902;45.116;21.296;2023-08-31T08:26:06;6.75;;;6.07;;
55007;SDS011;40902;45.116;21.296;2023-08-31T08:28:32;7.97;;;6.47;;
55007;SDS011;40902;45.116;21.296;2023-08-31T08:31:02;7.90;;;6.22;;
55007;SDS011;40902;45.116;21.296;2023-08-31T08:33:29;6.90;;;6.20;;
55007;SDS011;40902;45.116;21.296;2023-08-31T08:35:58;6.90;;;6.20;;
55007;SDS011;40902;45.116;21.296;2023-08-31T08:38:27;8.00;;;6.22;;
55007;SDS011;40902;45.116;21.296;2023-08-31T08:40:53;7.05;;;6.35;;
55007;SDS011;40902;45.116;21.296;2023-08-31T08:43:28;8.23;;;6.97;;
55007;SDS011;40902;45.116;21.296;2023-08-31T08:45:54;7.60;;;6.72;;
55007;SDS011;40902;45.116;21.296;2023-08-31T08:48:21;7.20;;;6.55;;
55007;SDS011;40902;45.116;21.296;2023-08-31T08:50:47;7.68;;;6.57;;
55007;SDS011;40902;45.116;21.296;2023-08-31T08:53:13;8.18;;;7.30;;
55007;SDS011;40902;45.116;21.296;2023-08-31T08:55:42;8.48;;;7.50;;
55007;SDS011;40902;45.116;21.296;2023-08-31T08:58:11;9.90;;;8.10;;
55007;SDS011;40902;45.116;21.296;2023-08-31T09:00:37;7.88;;;7.05;;
55007;SDS011;40902;45.116;21.296;2023-08-31T09:03:03;11.85;;;9.85;;
55007;SDS011;40902;45.116;21.296;2023-08-31T09:05:34;9.48;;;8.55;;
55007;SDS011;40902;45.116;21.296;2023-08-31T09:08:01;8.45;;;7.65;;
55007;SDS011;40902;45.116;21.296;2023-08-31T09:10:37;8.02;;;7.28;;
55007;SDS011;40902;45.116;21.296;2023-08-31T09:13:06;8.80;;;7.45;;
55007;SDS011;40902;45.116;21.296;2023-08-31T09:15:36;8.65;;;7.25;;
55007;SDS011;40902;45.116;21.296;2023-08-31T09:18:02;8.80;;;7.90;;
55007;SDS011;40902;45.116;21.296;2023-08-31T09:20:28;8.40;;;7.63;;
55007;SDS011;40902;45.116;21.296;2023-08-31T09:22:55;12.98;;;10.32;;
55007;SDS011;40902;45.116;21.296;2023-08-31T09:25:21;10.98;;;8.38;;
55007;SDS011;40902;45.116;21.296;2023-08-31T09:27:48;8.48;;;7.72;;
55007;SDS011;40902;45.116;21.296;2023-08-31T09:30:16;8.48;;;7.57;;
55007;SDS011;40902;45.116;21.296;2023-08-31T09:32:42;8.60;;;7.70;;
55007;SDS011;40902;45.116;21.296;2023-08-31T09:35:09;8.63;;;7.07;;
55007;SDS011;40902;45.116;21.296;2023-08-31T09:37:35;9.25;;;8.18;;
55007;SDS011;40902;45.116;21.296;2023-08-31T09:40:02;9.63;;;8.30;;
55007;SDS011;40902;45.116;21.296;2023-08-31T09:42:37;8.27;;;7.25;;
55007;SDS011;40902;45.116;21.296;2023-08-31T09:45:03;10.15;;;8.30;;
55007;SDS011;40902;45.116;21.296;2023-08-31T09:47:32;9.52;;;7.47;;
55007;SDS011;40902;45.116;21.296;2023-08-31T09:49:58;10.30;;;9.20;;
55007;SDS011;40902;45.116;21.296;2023-08-31T09:52:30;10.02;;;9.02;;
55007;SDS011;40902;45.116;21.296;2023-08-31T09:55:00;9.85;;;9.02;;
55007;SDS011;40902;45.116;21.296;2023-08-31T09:57:27;8.98;;;8.07;;
55007;SDS011;40902;45.116;21.296;2023-08-31T09:59:53;12.27;;;8.55;;
55007;SDS011;40902;45.116;21.296;2023-08-31T10:02:19;9.90;;;8.48;;
55007;SDS011;40902;45.116;21.296;2023-08-31T10:04:46;8.98;;;8.18;;
55007;SDS011;40902;45.116;21.296;2023-08-31T10:07:17;9.85;;;8.82;;
55007;SDS011;40902;45.116;21.296;2023-08-31T10:09:43;12.13;;;10.43;;
55007;SDS011;40902;45.116;21.296;2023-08-31T10:12:09;11.25;;;10.25;;
55007;SDS011;40902;45.116;21.296;2023-08-31T10:14:38;12.63;;;11.43;;
55007;SDS011;40902;45.116;21.296;2023-08-31T10:17:04;11.63;;;10.38;;
55007;SDS011;40902;45.116;21.296;2023-08-31T10:19:33;12.02;;;10.93;;
55007;SDS011;40902;45.116;21.296;2023-08-31T10:21:59;10.15;;;9.15;;
55007;SDS011;40902;45.116;21.296;2023-08-31T10:27:17;12.85;;;11.63;;
55007;SDS011;40902;45.116;21.296;2023-08-31T10:29:43;11.65;;;10.55;;
55007;SDS011;40902;45.116;21.296;2023-08-31T10:32:09;10.02;;;9.05;;
55007;SDS011;40902;45.116;21.296;2023-08-31T10:34:38;11.88;;;10.48;;
55007;SDS011;40902;45.116;21.296;2023-08-31T10:37:18;10.50;;;9.55;;
55007;SDS011;40902;45.116;21.296;2023-08-31T10:39:49;11.45;;;10.35;;
55007;SDS011;40902;45.116;21.296;2023-08-31T10:42:43;10.27;;;9.27;;
55007;SDS011;40902;45.116;21.296;2023-08-31T10:45:12;10.82;;;9.73;;
55007;SDS011;40902;45.116;21.296;2023-08-31T10:47:42;10.95;;;9.95;;
55007;SDS011;40902;45.116;21.296;2023-08-31T10:50:21;10.00;;;9.10;;
55007;SDS011;40902;45.116;21.296;2023-08-31T10:52:48;9.98;;;8.70;;
55007;SDS011;40902;45.116;21.296;2023-08-31T10:55:14;9.30;;;8.40;;
55007;SDS011;40902;45.116;21.296;2023-08-31T10:57:41;8.82;;;7.97;;
55007;SDS011;40902;45.116;21.296;2023-08-31T11:00:08;9.05;;;7.88;;
55007;SDS011;40902;45.116;21.296;2023-08-31T11:02:36;8.23;;;7.43;;
55007;SDS011;40902;45.116;21.296;2023-08-31T11:07:32;8.55;;;7.65;;
55007;SDS011;40902;45.116;21.296;2023-08-31T11:12:44;8.27;;;7.50;;
55007;SDS011;40902;45.116;21.296;2023-08-31T11:15:11;7.68;;;6.97;;
55007;SDS011;40902;45.116;21.296;2023-08-31T11:17:39;8.25;;;7.25;;
55007;SDS011;40902;45.116;21.296;2023-08-31T11:20:14;8.02;;;7.15;;
55007;SDS011;40902;45.116;21.296;2023-08-31T11:22:41;7.30;;;6.55;;
55007;SDS011;40902;45.116;21.296;2023-08-31T11:25:11;7.85;;;7.05;;
55007;SDS011;40902;45.116;21.296;2023-08-31T11:27:37;7.15;;;6.53;;
55007;SDS011;40902;45.116;21.296;2023-08-31T11:30:10;7.90;;;7.15;;
55007;SDS011;40902;45.116;21.296;2023-08-31T11:32:36;7.75;;;6.90;;
55007;SDS011;40902;45.116;21.296;2023-08-31T11:35:02;7.85;;;7.13;;
55007;SDS011;40902;45.116;21.296;2023-08-31T11:37:32;7.10;;;6.40;;
55007;SDS011;40902;45.116;21.296;2023-08-31T11:39:58;7.63;;;6.85;;
55007;SDS011;40902;45.116;21.296;2023-08-31T11:42:26;7.47;;;6.78;;
55007;SDS011;40902;45.116;21.296;2023-08-31T11:44:52;7.00;;;6.32;;
55007;SDS011;40902;45.116;21.296;2023-08-31T11:47:18;7.68;;;6.97;;
55007;SDS011;40902;45.116;21.296;2023-08-31T11:49:45;8.13;;;7.13;;
55007;SDS011;40902;45.116;21.296;2023-08-31T11:52:13;7.57;;;6.82;;
55007;SDS011;40902;45.116;21.296;2023-08-31T11:54:41;7.97;;;7.20;;
55007;SDS011;40902;45.116;21.296;2023-08-31T11:57:11;8.43;;;6.95;;
55007;SDS011;40902;45.116;21.296;2023-08-31T11:59:37;7.93;;;7.03;;
55007;SDS011;40902;45.116;21.296;2023-08-31T12:02:07;9.25;;;6.95;;
55007;SDS011;40902;45.116;21.296;2023-08-31T12:04:41;8.55;;;7.25;;
55007;SDS011;40902;45.116;21.296;2023-08-31T12:07:08;7.43;;;6.57;;
55007;SDS011;40902;45.116;21.296;2023-08-31T12:09:35;7.57;;;6.78;;
55007;SDS011;40902;45.116;21.296;2023-08-31T12:12:01;7.43;;;6.63;;
55007;SDS011;40902;45.116;21.296;2023-08-31T12:14:29;7.55;;;6.65;;
55007;SDS011;40902;45.116;21.296;2023-08-31T12:17:03;7.50;;;6.80;;
55007;SDS011;40902;45.116;21.296;2023-08-31T12:19:29;6.78;;;6.10;;
55007;SDS011;40902;45.116;21.296;2023-08-31T12:21:56;7.50;;;6.80;;
55007;SDS011;40902;45.116;21.296;2023-08-31T12:24:24;7.15;;;6.45;;
55007;SDS011;40902;45.116;21.296;2023-08-31T12:26:50;7.38;;;6.60;;
55007;SDS011;40902;45.116;21.296;2023-08-31T12:29:22;8.35;;;6.50;;
55007;SDS011;40902;45.116;21.296;2023-08-31T12:31:48;7.22;;;5.82;;
55007;SDS011;40902;45.116;21.296;2023-08-31T12:34:16;8.13;;;6.32;;
55007;SDS011;40902;45.116;21.296;2023-08-31T12:36:43;6.88;;;6.20;;
55007;SDS011;40902;45.116;21.296;2023-08-31T12:39:11;7.07;;;6.38;;
55007;SDS011;40902;45.116;21.296;2023-08-31T12:41:40;8.10;;;6.40;;
55007;SDS011;40902;45.116;21.296;2023-08-31T12:44:06;7.57;;;6.35;;
55007;SDS011;40902;45.116;21.296;2023-08-31T12:46:37;6.43;;;5.80;;
55007;SDS011;40902;45.116;21.296;2023-08-31T12:49:04;5.80;;;5.20;;
55007;SDS011;40902;45.116;21.296;2023-08-31T12:51:31;5.72;;;5.13;;
55007;SDS011;40902;45.116;21.296;2023-08-31T12:53:57;5.57;;;5.03;;
55007;SDS011;40902;45.116;21.296;2023-08-31T12:56:26;5.63;;;4.68;;
55007;SDS011;40902;45.116;21.296;2023-08-31T12:58:52;5.03;;;4.53;;
55007;SDS011;40902;45.116;21.296;2023-08-31T13:01:19;7.72;;;4.40;;
55007;SDS011;40902;45.116;21.296;2023-08-31T13:03:46;4.97;;;4.47;;
55007;SDS011;40902;45.116;21.296;2023-08-31T13:06:17;6.72;;;5.05;;
55007;SDS011;40902;45.116;21.296;2023-08-31T13:08:46;5.90;;;5.30;;
55007;SDS011;40902;45.116;21.296;2023-08-31T13:11:12;5.82;;;5.22;;
55007;SDS011;40902;45.116;21.296;2023-08-31T13:13:38;7.18;;;5.40;;
55007;SDS011;40902;45.116;21.296;2023-08-31T13:16:04;6.20;;;5.20;;
55007;SDS011;40902;45.116;21.296;2023-08-31T13:18:33;6.03;;;4.97;;
55007;SDS011;40902;45.116;21.296;2023-08-31T13:21:01;7.03;;;4.90;;
55007;SDS011;40902;45.116;21.296;2023-08-31T13:23:28;5.35;;;4.55;;
55007;SDS011;40902;45.116;21.296;2023-08-31T13:25:54;6.82;;;5.15;;
55007;SDS011;40902;45.116;21.296;2023-08-31T13:28:21;6.45;;;4.80;;
55007;SDS011;40902;45.116;21.296;2023-08-31T13:30:55;5.63;;;4.70;;
55007;SDS011;40902;45.116;21.296;2023-08-31T13:33:25;6.53;;;5.80;;
55007;SDS011;40902;45.116;21.296;2023-08-31T13:35:53;6.90;;;5.78;;
55007;SDS011;40902;45.116;21.296;2023-08-31T13:38:23;6.18;;;5.35;;
55007;SDS011;40902;45.116;21.296;2023-08-31T13:40:53;6.40;;;5.78;;
55007;SDS011;40902;45.116;21.296;2023-08-31T13:43:22;5.65;;;5.07;;
55007;SDS011;40902;45.116;21.296;2023-08-31T13:45:48;7.32;;;6.18;;
55007;SDS011;40902;45.116;21.296;2023-08-31T13:48:14;7.68;;;6.88;;
55007;SDS011;40902;45.116;21.296;2023-08-31T13:50:40;6.85;;;5.90;;
55007;SDS011;40902;45.116;21.296;2023-08-31T13:53:09;5.97;;;5.38;;
55007;SDS011;40902;45.116;21.296;2023-08-31T13:55:35;6.20;;;5.60;;
55007;SDS011;40902;45.116;21.296;2023-08-31T13:58:05;6.00;;;5.38;;
55007;SDS011;40902;45.116;21.296;2023-08-31T14:00:34;5.57;;;4.57;;
55007;SDS011;40902;45.116;21.296;2023-08-31T14:03:01;5.95;;;4.80;;
55007;SDS011;40902;45.116;21.296;2023-08-31T14:05:30;5.60;;;4.70;;
55007;SDS011;40902;45.116;21.296;2023-08-31T14:07:59;5.45;;;4.47;;
55007;SDS011;40902;45.116;21.296;2023-08-31T14:10:30;6.97;;;4.95;;
55007;SDS011;40902;45.116;21.296;2023-08-31T14:13:00;5.60;;;4.45;;
55007;SDS011;40902;45.116;21.296;2023-08-31T14:15:27;5.28;;;4.70;;
55007;SDS011;40902;45.116;21.296;2023-08-31T14:17:53;6.18;;;5.57;;
55007;SDS011;40902;45.116;21.296;2023-08-31T14:20:21;5.97;;;4.85;;
55007;SDS011;40902;45.116;21.296;2023-08-31T14:22:47;5.95;;;4.93;;
55007;SDS011;40902;45.116;21.296;2023-08-31T14:25:16;5.93;;;5.30;;
55007;SDS011;40902;45.116;21.296;2023-08-31T14:27:42;5.30;;;4.80;;
55007;SDS011;40902;45.116;21.296;2023-08-31T14:30:08;6.20;;;4.20;;
55007;SDS011;40902;45.116;21.296;2023-08-31T14:32:35;4.40;;;3.72;;
55007;SDS011;40902;45.116;21.296;2023-08-31T14:35:03;4.43;;;3.28;;
55007;SDS011;40902;45.116;21.296;2023-08-31T14:37:31;4.72;;;3.67;;
55007;SDS011;40902;45.116;21.296;2023-08-31T14:39:57;4.93;;;4.00;;
55007;SDS011;40902;45.116;21.296;2023-08-31T14:42:23;4.95;;;4.40;;
55007;SDS011;40902;45.116;21.296;2023-08-31T14:44:49;6.43;;;4.68;;
55007;SDS011;40902;45.116;21.296;2023-08-31T14:47:16;4.15;;;3.60;;
55007;SDS011;40902;45.116;21.296;2023-08-31T14:49:42;5.88;;;3.80;;
55007;SDS011;40902;45.116;21.296;2023-08-31T14:52:08;5.90;;;4.00;;
55007;SDS011;40902;45.116;21.296;2023-08-31T14:54:36;4.80;;;3.85;;